LiveATC.Net - Listen to live air traffic control over the Internet!


ICAO: S50  IATA: S50   Airport: Auburn Municipal Airport
City: Auburn   State/Province: Washington
Country: United States   Continent: North America
KSEA METAR Weather: KSEA 181153Z 14005KT 10SM CLR 12/03 A3017 RMK AO2 SLP219 T01170033 10178 20111 58000
S50 Flight Activity (FlightAware)
S50 Webcam:  (Airport Webcams) 

Auburn CTAF
Feed Status: UP   Listeners: 0
Listen in your browser - HTML5 player (in browser, HTML5)
Click here to listen with your own player (launches your MP3 player)
Archive Access: Auburn CTAF
FacilityFrequency
Auburn CTAF/UNICOM122.800
Feed sponsored by: Auburn Municipal Airport

NOTICE

Unauthorized use prohibited. See LiveATC.net Terms of Service


Airport/ARTCC Code
Frequency Search
(e.g., 124.400, 128.75)
Site-wide search
 


Browse Feeds
Top 50 Feeds
HF Oceanic Feeds
Coverage Map
Bad Weather Areas

LiveATC FAQ
Offer LiveATC feed
Contact LiveATC.net
Press Inquiries

LiveATC on iPhone
LiveATC on Android

Windows Phone
Windows 8/10

LiveATC Mobile
(Mobile browser)

ATC Audio Archives
Interesting Recordings

LiveATC Forums


Home Page
About LiveATC.net
Make a Donation
Terms of Use
Privacy Policy

Canadian Air Freqs

AIRMETs/SIGMETs

FAA Airport Status
Nat'l Airspace Status
Arrival Demand Charts


Server Software By:
Icecast.org
Liquidsoap